createdAt,value
2023-01-06T00:01:14.823Z,100701.56
2023-01-06T00:03:41.636Z,100706.81
2023-01-06T00:06:10.517Z,100722.91
2023-01-06T00:08:37.744Z,100722.41
2023-01-06T00:11:11.589Z,100732.16
2023-01-06T00:13:38.904Z,100732.16
2023-01-06T00:16:08.382Z,100734.97
2023-01-06T00:18:35.848Z,100742.25
2023-01-06T00:21:03.708Z,100734.00
2023-01-06T00:23:31.117Z,100739.66
2023-01-06T00:25:57.736Z,100744.91
2023-01-06T00:28:24.300Z,100738.03
2023-01-06T00:30:51.475Z,100741.34
2023-01-06T00:33:18.247Z,100745.88
2023-01-06T00:35:44.920Z,100749.75
2023-01-06T00:38:11.609Z,100753.63
2023-01-06T00:40:38.501Z,100764.25
2023-01-06T00:43:05.709Z,100758.03
2023-01-06T00:45:32.389Z,100767.66
2023-01-06T00:47:59.063Z,100769.63
2023-01-06T00:50:25.663Z,100766.06
2023-01-06T00:52:52.236Z,100768.53
2023-01-06T00:55:18.795Z,100770.16
2023-01-06T00:57:45.351Z,100774.31
2023-01-06T01:00:12.252Z,100769.44
2023-01-06T01:02:39.123Z,100773.84
2023-01-06T01:05:05.925Z,100778.94
2023-01-06T01:07:32.488Z,100784.53
2023-01-06T01:09:59.063Z,100779.50
2023-01-06T01:12:25.636Z,100787.78
2023-01-06T01:14:54.213Z,100802.91
2023-01-06T01:17:31.696Z,100802.19
2023-01-06T01:19:59.988Z,100795.84
2023-01-06T01:22:28.987Z,100804.94
2023-01-06T01:24:55.576Z,100806.13
2023-01-06T01:27:22.127Z,100805.28
2023-01-06T01:29:48.736Z,100805.50
2023-01-06T01:32:15.267Z,100814.00
2023-01-06T01:34:41.847Z,100831.28
2023-01-06T01:37:08.512Z,100823.75
2023-01-06T01:39:35.111Z,100815.50
2023-01-06T01:42:01.639Z,100819.53
2023-01-06T01:44:58.261Z,100828.09
2023-01-06T01:47:27.861Z,100839.81
2023-01-06T01:49:58.743Z,100850.75
2023-01-06T01:52:25.823Z,100854.88
2023-01-06T01:54:55.482Z,100850.59
2023-01-06T01:57:34.713Z,100848.88
2023-01-06T02:00:03.494Z,100851.25
2023-01-06T02:02:31.242Z,100859.00
2023-01-06T02:04:58.153Z,100852.66
2023-01-06T02:07:26.843Z,100854.94
2023-01-06T02:10:02.791Z,100849.44
2023-01-06T02:12:29.940Z,100847.53
2023-01-06T02:14:56.501Z,100852.34
2023-01-06T02:17:52.275Z,100851.09
2023-01-06T02:20:27.266Z,100850.22
2023-01-06T02:22:56.698Z,100849.47
2023-01-06T02:25:29.231Z,100849.88
2023-01-06T02:28:17.843Z,100847.72
2023-01-06T02:30:56.520Z,100855.13
2023-01-06T02:33:31.977Z,100844.16
2023-01-06T02:36:10.836Z,100850.41
2023-01-06T02:39:01.451Z,100858.53
2023-01-06T02:41:41.852Z,100850.59
2023-01-06T02:44:27.300Z,100866.28
2023-01-06T02:47:00.376Z,100871.34
2023-01-06T02:49:44.515Z,100869.72
2023-01-06T02:52:26.387Z,100866.66
2023-01-06T02:54:59.012Z,100867.63
2023-01-06T02:57:42.594Z,100870.84
2023-01-06T03:00:13.187Z,100870.59
2023-01-06T03:02:42.606Z,100877.78
2023-01-06T03:05:14.042Z,100865.88
2023-01-06T03:07:42.234Z,100876.06
2023-01-06T03:10:10.003Z,100873.81
2023-01-06T03:12:54.374Z,100878.78
2023-01-06T03:15:21.532Z,100874.69
2023-01-06T03:17:48.351Z,100869.84
2023-01-06T03:20:15.163Z,100868.03
2023-01-06T03:22:42.184Z,100865.88
2023-01-06T03:25:09.688Z,100873.84
2023-01-06T03:27:36.541Z,100865.25
2023-01-06T03:30:09.737Z,100863.88
2023-01-06T03:33:15.143Z,100868.69
2023-01-06T03:36:13.361Z,100873.81
2023-01-06T03:38:45.404Z,100874.03
2023-01-06T03:41:52.007Z,100874.13
2023-01-06T03:44:29.227Z,100879.81
2023-01-06T03:47:03.836Z,100885.28
2023-01-06T03:49:33.261Z,100893.50
2023-01-06T03:52:11.739Z,100885.69
2023-01-06T03:54:45.877Z,100894.81
2023-01-06T03:57:46.339Z,100886.13
2023-01-06T04:00:19.344Z,100894.34
2023-01-06T04:02:47.031Z,100892.97
2023-01-06T04:05:17.275Z,100894.97
2023-01-06T04:07:44.658Z,100899.56
2023-01-06T04:10:12.675Z,100905.97
2023-01-06T04:12:39.668Z,100912.75
2023-01-06T04:15:16.286Z,100908.47
2023-01-06T04:17:44.324Z,100909.53
2023-01-06T04:20:14.446Z,100911.25
2023-01-06T04:22:41.713Z,100904.09
2023-01-06T04:25:09.039Z,100911.25
2023-01-06T04:27:35.743Z,100901.41
2023-01-06T04:30:02.633Z,100897.63
2023-01-06T04:32:29.355Z,100903.47
2023-01-06T04:34:55.933Z,100913.84
2023-01-06T04:37:22.556Z,100908.75
2023-01-06T04:39:49.587Z,100917.84
2023-01-06T04:42:16.339Z,100921.63
2023-01-06T04:44:42.913Z,100923.50
2023-01-06T04:47:10.685Z,100929.09
2023-01-06T04:49:37.346Z,100927.47
2023-01-06T04:52:04.652Z,100935.50
2023-01-06T04:54:31.239Z,100936.44
2023-01-06T04:56:57.876Z,100946.19
2023-01-06T04:59:24.464Z,100950.75
2023-01-06T05:01:52.451Z,100957.16
2023-01-06T05:04:19.045Z,100957.81
2023-01-06T05:06:45.977Z,100961.06
2023-01-06T05:09:12.811Z,100966.41
2023-01-06T05:11:39.532Z,100981.41
2023-01-06T05:14:06.144Z,100974.22
2023-01-06T05:16:34.406Z,100975.41
2023-01-06T05:19:01.332Z,100982.78
2023-01-06T05:21:32.292Z,100991.75
2023-01-06T05:23:59.915Z,100988.31
2023-01-06T05:26:27.872Z,100981.44
2023-01-06T05:28:55.039Z,100984.88
2023-01-06T05:31:21.609Z,100991.19
2023-01-06T05:33:48.195Z,100987.97
2023-01-06T05:36:17.544Z,100985.28
2023-01-06T05:38:45.131Z,100995.31
2023-01-06T05:41:11.805Z,100996.56
2023-01-06T05:43:38.637Z,101006.69
2023-01-06T05:46:10.400Z,101014.03
2023-01-06T05:48:38.027Z,101028.00
2023-01-06T05:51:13.879Z,101029.63
2023-01-06T05:53:43.653Z,101038.78
2023-01-06T05:56:12.909Z,101040.13
2023-01-06T05:58:42.952Z,101038.03
2023-01-06T06:01:23.141Z,101031.53
2023-01-06T06:03:50.703Z,101027.13
2023-01-06T06:06:18.649Z,101043.84
2023-01-06T06:08:45.200Z,101025.78
2023-01-06T06:11:14.515Z,101010.03
2023-01-06T06:13:49.600Z,101015.56
2023-01-06T06:16:18.079Z,101016.53
2023-01-06T06:18:48.291Z,101020.91
2023-01-06T06:21:18.478Z,101012.03
2023-01-06T06:23:45.057Z,101018.25
2023-01-06T06:26:12.499Z,101028.75
2023-01-06T06:28:40.020Z,101031.72
2023-01-06T06:31:08.963Z,101035.63
2023-01-06T06:33:35.823Z,101044.41
2023-01-06T06:36:03.682Z,101051.03
2023-01-06T06:38:30.412Z,101054.09
2023-01-06T06:40:57.423Z,101069.72
2023-01-06T06:43:24.128Z,101075.59
2023-01-06T06:45:50.730Z,101076.63
2023-01-06T06:48:17.526Z,101066.00
2023-01-06T06:50:44.290Z,101065.44
2023-01-06T06:53:10.846Z,101067.34
2023-01-06T06:55:37.680Z,101063.31
2023-01-06T06:58:04.260Z,101060.63
2023-01-06T07:00:30.952Z,101069.69
2023-01-06T07:02:57.496Z,101078.50
2023-01-06T07:05:25.780Z,101076.41
2023-01-06T07:07:52.556Z,101089.59
2023-01-06T07:10:19.286Z,101093.97
2023-01-06T07:12:45.920Z,101093.06
2023-01-06T07:15:12.539Z,101096.75
2023-01-06T07:17:39.669Z,101103.25
2023-01-06T07:20:06.527Z,101101.78
2023-01-06T07:22:33.101Z,101110.97
2023-01-06T07:24:59.989Z,101111.63
2023-01-06T07:27:26.619Z,101112.66
2023-01-06T07:29:53.169Z,101111.72
2023-01-06T07:32:19.745Z,101110.59
2023-01-06T07:34:46.340Z,101101.44
2023-01-06T07:37:12.940Z,101113.56
2023-01-06T07:39:39.559Z,101106.97
2023-01-06T07:42:08.747Z,101099.53
2023-01-06T07:44:35.591Z,101108.06
2023-01-06T07:47:02.325Z,101103.09
2023-01-06T07:49:29.404Z,101105.38
2023-01-06T07:51:56.401Z,101106.94
2023-01-06T07:54:23.095Z,101115.44
2023-01-06T07:56:49.651Z,101111.44
2023-01-06T07:59:16.227Z,101104.66
2023-01-06T08:01:44.446Z,101110.94
2023-01-06T08:04:11.596Z,101103.75
2023-01-06T08:06:41.173Z,101107.94
2023-01-06T08:09:08.236Z,101107.97
2023-01-06T08:11:35.060Z,101104.22
2023-01-06T08:14:01.629Z,101094.59
2023-01-06T08:16:28.277Z,101093.88
2023-01-06T08:18:54.871Z,101087.25
2023-01-06T08:21:21.470Z,101067.81
2023-01-06T08:23:48.101Z,101072.84
2023-01-06T08:26:17.710Z,101064.13
2023-01-06T08:28:46.085Z,101059.47
2023-01-06T08:31:19.783Z,101055.66
2023-01-06T08:33:47.500Z,101065.06
2023-01-06T08:36:16.852Z,101049.13
2023-01-06T08:38:44.097Z,101046.50
2023-01-06T08:41:12.489Z,101051.72
2023-01-06T08:43:41.147Z,101046.13
2023-01-06T08:46:09.623Z,101047.31
2023-01-06T08:48:36.369Z,101048.69
2023-01-06T08:51:08.285Z,101056.22
2023-01-06T08:53:35.185Z,101050.22
2023-01-06T08:56:03.013Z,101062.78
2023-01-06T08:58:29.644Z,101074.22
2023-01-06T09:00:56.243Z,101084.53
2023-01-06T09:03:22.866Z,101090.69
2023-01-06T09:05:57.547Z,101098.06
2023-01-06T09:08:24.957Z,101107.13
2023-01-06T09:10:52.027Z,101109.00
2023-01-06T09:13:18.685Z,101105.00
2023-01-06T09:15:48.863Z,101107.59
2023-01-06T09:18:15.968Z,101112.00
2023-01-06T09:20:42.657Z,101124.34
2023-01-06T09:23:09.263Z,101119.56
2023-01-06T09:25:35.944Z,101130.22
2023-01-06T09:28:02.694Z,101129.97
2023-01-06T09:30:29.498Z,101129.56
2023-01-06T09:32:56.099Z,101127.59
2023-01-06T09:35:23.039Z,101123.44
2023-01-06T09:37:49.797Z,101128.94
2023-01-06T09:40:21.631Z,101131.03
2023-01-06T09:43:12.931Z,101127.84
2023-01-06T09:45:53.159Z,101120.53
2023-01-06T09:48:27.544Z,101119.56
2023-01-06T09:51:00.202Z,101121.47
2023-01-06T09:53:38.669Z,101113.41
2023-01-06T09:56:15.123Z,101107.50
2023-01-06T09:58:55.288Z,101115.84
2023-01-06T10:01:30.811Z,101110.31
2023-01-06T10:03:58.434Z,101118.59
2023-01-06T10:06:30.657Z,101112.84
2023-01-06T10:09:19.713Z,101121.69
2023-01-06T10:11:46.266Z,101105.75
2023-01-06T10:14:29.522Z,101111.47
2023-01-06T10:17:05.067Z,101107.75
2023-01-06T10:19:59.724Z,101106.88
2023-01-06T10:22:52.015Z,101110.88
2023-01-06T10:25:27.532Z,101105.72
2023-01-06T10:28:02.357Z,101098.69
2023-01-06T10:30:52.677Z,101104.31
2023-01-06T10:33:22.250Z,101101.94
2023-01-06T10:35:49.527Z,101097.88
2023-01-06T10:38:17.098Z,101097.13
2023-01-06T10:40:43.955Z,101094.19
2023-01-06T10:43:13.542Z,101096.31
2023-01-06T10:45:44.441Z,101090.06
2023-01-06T10:48:18.135Z,101096.03
2023-01-06T10:50:47.264Z,101090.81
2023-01-06T10:53:15.185Z,101094.44
2023-01-06T10:55:51.050Z,101092.50
2023-01-06T10:58:42.293Z,101095.00
2023-01-06T11:01:15.723Z,101091.28
2023-01-06T11:03:44.304Z,101086.84
2023-01-06T11:06:29.059Z,101088.75
2023-01-06T11:08:56.276Z,101080.09
2023-01-06T11:11:28.028Z,101090.31
2023-01-06T11:14:04.804Z,101084.03
2023-01-06T11:16:33.878Z,101078.03
2023-01-06T11:19:03.185Z,101088.28
2023-01-06T11:21:46.700Z,101074.13
2023-01-06T11:24:21.328Z,101076.81
2023-01-06T11:26:51.668Z,101068.47
2023-01-06T11:29:35.404Z,101066.34
2023-01-06T11:32:24.857Z,101065.13
2023-01-06T11:35:19.198Z,101064.41
2023-01-06T11:37:46.481Z,101061.81
2023-01-06T11:40:21.175Z,101061.31
2023-01-06T11:42:55.156Z,101061.19
2023-01-06T11:45:30.109Z,101063.22
2023-01-06T11:47:57.476Z,101051.56
2023-01-06T11:50:24.358Z,101059.06
2023-01-06T11:53:03.023Z,101062.50
2023-01-06T11:55:30.700Z,101061.78
2023-01-06T11:58:17.467Z,101053.00
2023-01-06T12:01:25.863Z,101047.47
2023-01-06T12:04:01.037Z,101052.25
2023-01-06T12:06:43.115Z,101042.19
2023-01-06T12:09:17.577Z,101025.28
2023-01-06T12:11:47.807Z,101032.66
2023-01-06T12:14:28.790Z,101031.34
2023-01-06T12:17:18.136Z,101028.94
2023-01-06T12:19:56.339Z,101021.16
2023-01-06T12:22:37.422Z,101019.81
2023-01-06T12:25:06.524Z,101013.75
2023-01-06T12:27:45.691Z,101015.34
2023-01-06T12:30:21.324Z,101017.19
2023-01-06T12:32:49.341Z,101012.84
2023-01-06T12:35:21.892Z,101005.53
2023-01-06T12:37:54.650Z,101001.16
2023-01-06T12:40:39.498Z,101005.41
2023-01-06T12:43:28.370Z,101002.69
2023-01-06T12:46:19.359Z,101003.09
2023-01-06T12:48:54.594Z,100994.63
2023-01-06T12:51:27.442Z,100994.31
2023-01-06T12:54:00.294Z,100988.28
2023-01-06T12:56:45.604Z,100981.03
2023-01-06T12:59:30.727Z,100981.41
2023-01-06T13:02:12.650Z,100984.81
2023-01-06T13:04:48.375Z,100989.06
2023-01-06T13:07:44.414Z,100989.94
2023-01-06T13:10:26.652Z,100986.84
2023-01-06T13:13:10.623Z,100989.53
2023-01-06T13:15:40.717Z,100990.34
2023-01-06T13:18:29.144Z,100994.88
2023-01-06T13:21:11.721Z,100997.06
2023-01-06T13:24:03.104Z,100997.66
2023-01-06T13:26:57.112Z,101001.22
2023-01-06T13:29:44.454Z,101003.81
2023-01-06T13:33:09.689Z,101011.66
2023-01-06T13:35:42.055Z,101012.75
2023-01-06T13:38:42.071Z,101023.19
2023-01-06T13:41:16.111Z,101018.63
2023-01-06T13:43:44.895Z,101018.38
2023-01-06T13:46:17.675Z,101002.50
2023-01-06T13:48:50.207Z,101009.03
2023-01-06T13:51:20.400Z,101005.63
2023-01-06T13:53:50.239Z,101000.22
2023-01-06T13:56:16.771Z,100996.50
2023-01-06T13:58:45.474Z,100996.38
2023-01-06T14:01:19.600Z,100986.72
2023-01-06T14:03:50.407Z,100990.13
2023-01-06T14:06:23.143Z,100995.16
2023-01-06T14:08:58.785Z,100986.84
2023-01-06T14:11:32.679Z,100992.69
2023-01-06T14:14:08.137Z,100989.53
2023-01-06T14:16:47.453Z,100986.38
2023-01-06T14:19:19.522Z,100988.09
2023-01-06T14:21:49.127Z,100993.13
2023-01-06T14:24:25.468Z,100993.25
2023-01-06T14:27:02.550Z,100994.38
2023-01-06T14:29:44.266Z,100995.06
2023-01-06T14:32:14.527Z,101000.44
2023-01-06T14:34:50.373Z,100985.47
2023-01-06T14:37:19.760Z,100991.41
2023-01-06T14:39:51.749Z,100996.47
2023-01-06T14:42:22.902Z,101005.31
2023-01-06T14:44:53.485Z,100999.25
2023-01-06T14:47:38.600Z,101000.66
2023-01-06T14:50:14.379Z,100996.88
2023-01-06T14:53:01.114Z,100996.00
2023-01-06T14:55:31.466Z,100999.25
2023-01-06T14:57:58.043Z,101004.06
2023-01-06T15:00:29.807Z,100997.25
2023-01-06T15:02:59.073Z,101011.44
2023-01-06T15:05:30.354Z,101002.91
2023-01-06T15:08:18.126Z,100992.47
2023-01-06T15:10:47.218Z,100997.13
2023-01-06T15:13:32.995Z,101010.31
2023-01-06T15:16:09.149Z,101008.69
2023-01-06T15:18:41.563Z,101007.28
2023-01-06T15:21:08.441Z,101007.84
2023-01-06T15:23:35.129Z,101008.38
2023-01-06T15:26:01.713Z,101010.75
2023-01-06T15:28:34.292Z,101002.19
2023-01-06T15:31:02.287Z,101002.47
2023-01-06T15:33:39.054Z,100998.56
2023-01-06T15:36:07.119Z,101000.94
2023-01-06T15:38:40.102Z,101000.28
2023-01-06T15:41:27.133Z,101003.50
2023-01-06T15:43:53.787Z,101003.38
2023-01-06T15:46:20.451Z,101004.47
2023-01-06T15:48:48.808Z,101006.81
2023-01-06T15:51:18.615Z,101001.53
2023-01-06T15:53:48.781Z,101018.88
2023-01-06T15:56:21.127Z,101014.94
2023-01-06T15:58:50.846Z,101016.38
2023-01-06T16:01:20.444Z,101023.69
2023-01-06T16:03:55.869Z,101024.28
2023-01-06T16:06:37.206Z,101027.25
2023-01-06T16:09:19.061Z,101017.41
2023-01-06T16:12:17.805Z,101025.31
2023-01-06T16:14:49.507Z,101026.75
2023-01-06T16:17:33.206Z,101026.63
2023-01-06T16:20:05.639Z,101034.53
2023-01-06T16:22:40.858Z,101030.19
2023-01-06T16:25:28.452Z,101026.13
2023-01-06T16:27:57.690Z,101027.06
2023-01-06T16:30:24.479Z,101028.56
2023-01-06T16:32:52.839Z,101038.63
2023-01-06T16:35:22.835Z,101038.16
2023-01-06T16:37:50.184Z,101039.28
2023-01-06T16:40:19.767Z,101043.81
2023-01-06T16:42:47.012Z,101036.94
2023-01-06T16:45:26.785Z,101039.03
2023-01-06T16:47:55.226Z,101044.78
2023-01-06T16:50:23.293Z,101029.41
2023-01-06T16:53:12.426Z,101033.25
2023-01-06T16:55:40.904Z,101028.44
2023-01-06T16:58:17.879Z,101029.97
2023-01-06T17:00:51.264Z,101031.81
2023-01-06T17:03:23.867Z,101033.16
2023-01-06T17:05:54.314Z,101030.91
2023-01-06T17:08:41.198Z,101029.13
2023-01-06T17:11:15.717Z,101019.75
2023-01-06T17:14:06.016Z,101013.47
2023-01-06T17:16:36.152Z,101012.59
2023-01-06T17:19:14.532Z,101017.84
2023-01-06T17:21:41.725Z,101023.78
2023-01-06T17:24:08.287Z,101027.06
2023-01-06T17:26:35.413Z,101027.75
2023-01-06T17:29:03.100Z,101030.06
2023-01-06T17:31:34.198Z,101032.56
2023-01-06T17:34:11.031Z,101029.03
2023-01-06T17:36:39.904Z,101030.16
2023-01-06T17:39:18.458Z,101033.16
2023-01-06T17:41:45.088Z,101031.63
2023-01-06T17:44:21.929Z,101037.28
2023-01-06T17:46:49.852Z,101033.88
2023-01-06T17:49:19.563Z,101033.88
2023-01-06T17:51:46.863Z,101031.97
2023-01-06T17:54:36.775Z,101028.25
2023-01-06T17:57:14.839Z,101028.44
2023-01-06T17:59:42.113Z,101031.19
2023-01-06T18:02:42.600Z,101040.22
2023-01-06T18:05:30.636Z,101044.34
2023-01-06T18:08:06.114Z,101046.72
2023-01-06T18:10:37.957Z,101046.44
2023-01-06T18:13:18.864Z,101045.41
2023-01-06T18:15:48.043Z,101040.00
2023-01-06T18:18:32.618Z,101041.25
2023-01-06T18:21:04.356Z,101041.38
2023-01-06T18:23:34.911Z,101041.94
2023-01-06T18:26:25.829Z,101049.03
2023-01-06T18:28:53.831Z,101054.88
2023-01-06T18:31:22.896Z,101062.09
2023-01-06T18:33:51.184Z,101055.72
2023-01-06T18:36:17.775Z,101051.25
2023-01-06T18:38:45.299Z,101045.91
2023-01-06T18:41:13.271Z,101044.97
2023-01-06T18:43:41.850Z,101052.19
2023-01-06T18:46:15.476Z,101060.13
2023-01-06T18:48:42.967Z,101070.44
2023-01-06T18:51:19.855Z,101062.34
2023-01-06T18:53:47.628Z,101063.13
2023-01-06T18:56:36.591Z,101054.19
2023-01-06T18:59:12.583Z,101060.72
2023-01-06T19:01:46.373Z,101060.91
2023-01-06T19:04:30.026Z,101067.09
2023-01-06T19:07:15.373Z,101062.50
2023-01-06T19:09:44.657Z,101071.25
2023-01-06T19:12:41.280Z,101055.78
2023-01-06T19:15:27.116Z,101055.47
2023-01-06T19:17:54.502Z,101049.94
2023-01-06T19:20:28.751Z,101055.94
2023-01-06T19:22:56.944Z,101046.06
2023-01-06T19:25:37.139Z,101045.84
2023-01-06T19:28:15.606Z,101051.19
2023-01-06T19:30:56.894Z,101038.78
2023-01-06T19:33:38.377Z,101039.84
2023-01-06T19:36:04.917Z,101036.22
2023-01-06T19:38:36.983Z,101027.69
2023-01-06T19:41:09.421Z,101031.06
2023-01-06T19:43:36.452Z,101031.97
2023-01-06T19:46:12.942Z,101027.44
2023-01-06T19:48:41.404Z,101025.59
2023-01-06T19:51:34.776Z,101023.13
2023-01-06T19:54:04.309Z,101014.53
2023-01-06T19:56:35.545Z,101016.50
2023-01-06T19:59:22.078Z,101029.28
2023-01-06T20:01:54.162Z,101030.22
2023-01-06T20:04:26.706Z,101027.63
2023-01-06T20:06:53.646Z,101021.41
2023-01-06T20:09:23.366Z,101024.28
2023-01-06T20:11:51.430Z,101027.13
2023-01-06T20:14:19.035Z,101020.41
2023-01-06T20:16:46.326Z,101014.38
2023-01-06T20:19:13.849Z,101020.00
2023-01-06T20:21:40.533Z,101029.66
2023-01-06T20:24:07.741Z,101026.19
2023-01-06T20:26:35.062Z,101024.31
2023-01-06T20:29:04.252Z,101026.28
2023-01-06T20:31:31.656Z,101026.09
2023-01-06T20:33:58.549Z,101021.63
2023-01-06T20:36:25.193Z,101029.31
2023-01-06T20:38:51.810Z,101027.31
2023-01-06T20:41:18.800Z,101017.13
2023-01-06T20:43:45.372Z,101025.72
2023-01-06T20:46:13.506Z,101021.66
2023-01-06T20:48:41.179Z,101029.59
2023-01-06T20:51:08.291Z,101029.69
2023-01-06T20:53:34.828Z,101026.16
2023-01-06T20:56:01.483Z,101035.00
2023-01-06T20:58:28.071Z,101029.50
2023-01-06T21:00:54.686Z,101026.56
2023-01-06T21:03:21.286Z,101020.47
2023-01-06T21:05:47.907Z,101023.88
2023-01-06T21:08:14.541Z,101016.56
2023-01-06T21:10:41.176Z,101022.94
2023-01-06T21:13:07.741Z,101021.28
2023-01-06T21:15:34.317Z,101026.47
2023-01-06T21:18:00.973Z,101023.88
2023-01-06T21:20:27.718Z,101023.81
2023-01-06T21:22:54.363Z,101022.84
2023-01-06T21:25:20.978Z,101022.69
2023-01-06T21:27:47.604Z,101020.69
2023-01-06T21:30:14.537Z,101018.00
2023-01-06T21:32:41.114Z,101017.34
2023-01-06T21:35:08.064Z,101017.41
2023-01-06T21:37:34.611Z,101014.66
2023-01-06T21:40:02.932Z,101013.03
2023-01-06T21:42:47.660Z,101022.09
2023-01-06T21:45:14.234Z,101038.19
2023-01-06T21:47:40.785Z,101025.00
2023-01-06T21:50:09.401Z,101018.91
2023-01-06T21:52:36.323Z,101024.44
2023-01-06T21:55:03.055Z,101016.59
2023-01-06T21:57:29.667Z,101017.56
2023-01-06T21:59:56.229Z,101020.81
2023-01-06T22:02:22.975Z,101017.00
2023-01-06T22:04:52.250Z,101022.78
2023-01-06T22:07:19.768Z,101016.97
2023-01-06T22:09:46.427Z,101009.63
2023-01-06T22:12:16.092Z,101004.97
2023-01-06T22:14:43.675Z,101010.47
2023-01-06T22:17:10.943Z,101008.00
2023-01-06T22:19:38.589Z,100999.41
2023-01-06T22:22:06.621Z,101004.91
2023-01-06T22:24:34.989Z,101004.22
2023-01-06T22:27:01.602Z,101001.84
2023-01-06T22:29:28.155Z,101006.59
2023-01-06T22:31:54.912Z,101009.47
2023-01-06T22:34:21.510Z,100999.88
2023-01-06T22:36:48.077Z,101002.66
2023-01-06T22:39:14.711Z,101000.16
2023-01-06T22:41:41.305Z,101001.09
2023-01-06T22:44:08.279Z,100998.63
2023-01-06T22:46:34.893Z,101000.59
2023-01-06T22:49:01.547Z,100996.38
2023-01-06T22:51:28.662Z,101002.00
2023-01-06T22:53:55.642Z,101008.81
2023-01-06T22:56:22.190Z,101001.22
2023-01-06T22:58:48.860Z,100993.91
2023-01-06T23:01:15.595Z,100996.09
2023-01-06T23:03:42.268Z,100989.53
2023-01-06T23:06:11.612Z,100991.94
2023-01-06T23:08:48.109Z,100999.72
2023-01-06T23:11:22.514Z,100996.63
2023-01-06T23:13:49.232Z,100993.28
2023-01-06T23:16:19.093Z,100990.94
2023-01-06T23:18:47.758Z,100992.13
2023-01-06T23:21:21.905Z,100985.47
2023-01-06T23:23:49.424Z,100991.31
2023-01-06T23:26:23.473Z,100993.34
2023-01-06T23:28:51.425Z,101001.88
2023-01-06T23:31:21.240Z,100996.34
2023-01-06T23:33:50.275Z,100999.72
2023-01-06T23:36:18.738Z,101001.44
2023-01-06T23:38:46.109Z,101001.69
2023-01-06T23:41:18.097Z,100999.31
2023-01-06T23:43:45.052Z,101004.09
2023-01-06T23:46:14.969Z,100999.22
2023-01-06T23:48:42.018Z,101001.66
2023-01-06T23:51:10.102Z,100997.00
2023-01-06T23:53:37.832Z,100990.34
2023-01-06T23:56:17.418Z,101003.94
2023-01-06T23:58:45.937Z,101001.59
